createdAt,value
2018-11-21T00:02:14.225Z,-0.79
2018-11-21T00:04:42.356Z,-0.69
2018-11-21T00:07:10.513Z,-0.61
2018-11-21T00:09:38.637Z,-0.49
2018-11-21T00:12:06.829Z,-0.38
2018-11-21T00:14:35.011Z,-0.37
2018-11-21T00:17:03.156Z,-0.26
2018-11-21T00:19:31.295Z,-0.39
2018-11-21T00:21:59.448Z,-0.47
2018-11-21T00:24:27.576Z,-0.60
2018-11-21T00:26:55.695Z,-0.69
2018-11-21T00:29:23.875Z,-1.01
2018-11-21T00:31:52.063Z,-1.22
2018-11-21T00:34:20.238Z,-1.29
2018-11-21T00:36:48.427Z,-1.14
2018-11-21T00:39:16.545Z,-0.90
2018-11-21T00:41:44.677Z,-1.00
2018-11-21T00:44:13.218Z,-1.21
2018-11-21T00:46:41.325Z,-1.40
2018-11-21T00:49:09.470Z,-1.49
2018-11-21T00:51:37.605Z,-1.64
2018-11-21T00:54:05.816Z,-1.69
2018-11-21T00:56:34.017Z,-1.65
2018-11-21T00:59:02.150Z,-1.54
2018-11-21T01:01:30.267Z,-1.35
2018-11-21T01:03:58.426Z,-1.28
2018-11-21T01:06:26.547Z,-1.24
2018-11-21T01:08:54.684Z,-1.17
2018-11-21T01:11:22.817Z,-1.08
2018-11-21T01:13:50.961Z,-1.00
2018-11-21T01:16:19.082Z,-0.89
2018-11-21T01:18:47.352Z,-0.81
2018-11-21T01:21:15.467Z,-0.70
2018-11-21T01:23:43.602Z,-0.63
2018-11-21T01:26:11.717Z,-0.95
2018-11-21T01:28:39.851Z,-1.13
2018-11-21T01:31:07.977Z,-1.50
2018-11-21T01:33:36.098Z,-1.78
2018-11-21T01:36:04.480Z,-2.09
2018-11-21T01:38:33.244Z,-2.29
2018-11-21T01:41:01.394Z,-2.47
2018-11-21T01:43:29.568Z,-2.55
2018-11-21T01:45:57.689Z,-2.58
2018-11-21T01:48:25.847Z,-2.57
2018-11-21T01:50:53.989Z,-2.64
2018-11-21T01:53:22.289Z,-2.76
2018-11-21T01:55:50.427Z,-2.73
2018-11-21T01:58:18.545Z,-2.60
2018-11-21T02:00:46.705Z,-2.60
2018-11-21T02:03:14.849Z,-2.63
2018-11-21T02:05:42.966Z,-2.56
2018-11-21T02:08:11.109Z,-2.58
2018-11-21T02:10:39.283Z,-2.59
2018-11-21T02:13:07.405Z,-2.59
2018-11-21T02:15:35.541Z,-2.52
2018-11-21T02:18:04.350Z,-2.38
2018-11-21T02:20:32.526Z,-2.11
2018-11-21T02:23:00.669Z,-1.64
2018-11-21T02:25:28.809Z,-1.40
2018-11-21T02:27:56.947Z,-1.21
2018-11-21T02:30:25.102Z,-0.97
2018-11-21T02:32:53.239Z,-1.05
2018-11-21T02:35:21.386Z,-0.99
2018-11-21T02:37:49.530Z,-0.89
2018-11-21T02:40:17.688Z,-1.24
2018-11-21T02:42:45.816Z,-1.85
2018-11-21T02:45:13.955Z,-2.14
2018-11-21T02:47:42.090Z,-2.04
2018-11-21T02:50:10.263Z,-1.94
2018-11-21T02:52:38.435Z,-1.74
2018-11-21T02:55:07.145Z,-1.67
2018-11-21T02:57:35.936Z,-1.38
2018-11-21T03:00:09.280Z,-1.23
2018-11-21T03:02:37.414Z,-1.70
2018-11-21T03:05:06.270Z,-2.12
2018-11-21T03:07:34.412Z,-2.32
2018-11-21T03:10:02.608Z,-2.41
2018-11-21T03:12:31.706Z,-2.47
2018-11-21T03:14:59.859Z,-2.61
2018-11-21T03:17:28.019Z,-2.69
2018-11-21T03:19:56.167Z,-2.79
2018-11-21T03:22:24.290Z,-2.75
2018-11-21T03:24:52.438Z,-2.78
2018-11-21T03:27:20.613Z,-2.88
2018-11-21T03:29:48.787Z,-2.86
2018-11-21T03:32:16.982Z,-2.79
2018-11-21T03:34:45.183Z,-2.62
2018-11-21T03:37:13.251Z,-2.37
2018-11-21T03:39:41.408Z,-1.97
2018-11-21T03:42:09.558Z,-1.66
2018-11-21T03:44:37.731Z,-1.55
2018-11-21T03:47:06.657Z,-1.51
2018-11-21T03:49:34.801Z,-1.38
2018-11-21T03:52:02.962Z,-1.27
2018-11-21T03:54:31.077Z,-1.24
2018-11-21T03:56:59.222Z,-1.19
2018-11-21T03:59:27.343Z,-1.11
2018-11-21T04:01:55.492Z,-1.31
2018-11-21T04:04:23.649Z,-1.45
2018-11-21T04:06:51.822Z,-2.00
2018-11-21T04:09:19.978Z,-2.53
2018-11-21T04:11:48.126Z,-2.71
2018-11-21T04:14:16.261Z,-2.85
2018-11-21T04:16:44.482Z,-3.03
2018-11-21T04:19:12.729Z,-3.13
2018-11-21T04:21:40.887Z,-2.92
2018-11-21T04:24:09.049Z,-2.46
2018-11-21T04:26:37.831Z,-2.19
2018-11-21T04:29:06.916Z,-2.31
2018-11-21T04:31:35.056Z,-2.50
2018-11-21T04:34:03.195Z,-2.63
2018-11-21T04:36:31.326Z,-2.74
2018-11-21T04:38:59.505Z,-2.58
2018-11-21T04:41:27.624Z,-2.75
2018-11-21T04:43:55.920Z,-2.80
2018-11-21T04:46:24.054Z,-2.79
2018-11-21T04:48:52.225Z,-2.82
2018-11-21T04:51:20.386Z,-2.78
2018-11-21T04:53:48.553Z,-2.85
2018-11-21T04:56:16.677Z,-2.87
2018-11-21T04:58:44.836Z,-2.87
2018-11-21T05:01:12.993Z,-2.71
2018-11-21T05:03:41.495Z,-2.75
2018-11-21T05:06:09.639Z,-2.83
2018-11-21T05:08:37.796Z,-2.90
2018-11-21T05:11:06.432Z,-2.84
2018-11-21T05:13:34.170Z,-2.68
2018-11-21T05:16:02.328Z,-2.76
2018-11-21T05:18:32.774Z,-2.78
2018-11-21T05:21:00.932Z,-2.90
2018-11-21T05:23:29.091Z,-2.82
2018-11-21T05:25:57.214Z,-2.77
2018-11-21T05:28:25.362Z,-2.84
2018-11-21T05:30:53.703Z,-2.77
2018-11-21T05:33:21.987Z,-2.78
2018-11-21T05:35:50.180Z,-2.79
2018-11-21T05:38:18.299Z,-2.85
2018-11-21T05:40:46.508Z,-2.82
2018-11-21T05:43:14.668Z,-2.77
2018-11-21T05:45:42.836Z,-2.79
2018-11-21T05:48:10.988Z,-2.84
2018-11-21T05:50:39.131Z,-2.84
2018-11-21T05:53:07.278Z,-2.89
2018-11-21T05:55:35.394Z,-3.02
2018-11-21T05:58:03.537Z,-3.09
2018-11-21T06:00:31.679Z,-3.06
2018-11-21T06:02:59.816Z,-3.06
2018-11-21T06:05:27.961Z,-2.79
2018-11-21T06:07:56.083Z,-2.74
2018-11-21T06:10:24.210Z,-2.81
2018-11-21T06:12:52.347Z,-2.94
2018-11-21T06:15:20.500Z,-3.24
2018-11-21T06:17:48.634Z,-3.16
2018-11-21T06:20:16.802Z,-2.86
2018-11-21T06:22:45.289Z,-2.85
2018-11-21T06:25:13.798Z,-2.84
2018-11-21T06:27:41.951Z,-2.72
2018-11-21T06:30:11.664Z,-2.58
2018-11-21T06:32:40.107Z,-2.49
2018-11-21T06:35:09.307Z,-2.44
2018-11-21T06:37:37.890Z,-2.27
2018-11-21T06:40:08.876Z,-2.18
2018-11-21T06:42:37.012Z,-2.13
2018-11-21T06:45:07.208Z,-2.04
2018-11-21T06:47:35.333Z,-2.03
2018-11-21T06:50:03.866Z,-2.06
2018-11-21T06:52:32.016Z,-2.00
2018-11-21T06:55:00.163Z,-1.97
2018-11-21T06:57:28.346Z,-1.96
2018-11-21T06:59:56.482Z,-2.14
2018-11-21T07:02:24.654Z,-2.15
2018-11-21T07:04:52.796Z,-2.05
2018-11-21T07:07:20.997Z,-1.95
2018-11-21T07:09:49.141Z,-1.89
2018-11-21T07:12:17.283Z,-1.85
2018-11-21T07:14:45.512Z,-1.87
2018-11-21T07:17:13.578Z,-1.76
2018-11-21T07:19:41.705Z,-1.76
2018-11-21T07:22:09.837Z,-1.80
2018-11-21T07:24:37.976Z,-1.72
2018-11-21T07:27:06.355Z,-1.69
2018-11-21T07:29:34.834Z,-1.77
2018-11-21T07:32:02.641Z,-1.66
2018-11-21T07:34:30.789Z,-1.62
2018-11-21T07:36:58.953Z,-1.52
2018-11-21T07:39:27.084Z,-1.55
2018-11-21T07:41:55.219Z,-1.52
2018-11-21T07:44:23.386Z,-1.53
2018-11-21T07:46:51.528Z,-1.46
2018-11-21T07:49:19.754Z,-1.40
2018-11-21T07:51:47.925Z,-1.39
2018-11-21T07:54:16.858Z,-1.39
2018-11-21T07:57:12.438Z,-1.39
2018-11-21T08:00:00.723Z,-1.27
2018-11-21T08:02:34.398Z,-1.22
2018-11-21T08:05:11.369Z,-1.10
2018-11-21T08:07:47.451Z,-0.98
2018-11-21T08:10:43.721Z,-0.98
2018-11-21T08:13:42.608Z,-1.01
2018-11-21T08:16:32.806Z,-0.88
2018-11-21T08:19:22.599Z,-0.87
2018-11-21T08:22:13.217Z,-0.70
2018-11-21T08:25:05.996Z,-0.61
2018-11-21T08:27:43.598Z,-0.40
2018-11-21T08:30:11.698Z,-0.28
2018-11-21T08:32:39.879Z,-0.32
2018-11-21T08:35:07.997Z,-0.28
2018-11-21T08:37:36.109Z,-0.16
2018-11-21T08:40:04.316Z,-0.16
2018-11-21T08:42:32.442Z,-0.18
2018-11-21T08:45:00.577Z,-0.12
2018-11-21T08:47:28.707Z,-0.05
2018-11-21T08:49:56.897Z,0.09
2018-11-21T08:52:25.014Z,0.11
2018-11-21T08:54:53.171Z,0.07
2018-11-21T08:57:21.374Z,0.05
2018-11-21T08:59:49.506Z,0.20
2018-11-21T09:02:17.710Z,0.21
2018-11-21T09:04:46.144Z,0.14
2018-11-21T09:07:14.276Z,0.15
2018-11-21T09:09:42.409Z,0.27
2018-11-21T09:12:11.167Z,0.35
2018-11-21T09:14:38.633Z,0.47
2018-11-21T09:17:06.738Z,0.55
2018-11-21T09:19:34.873Z,0.57
2018-11-21T09:22:02.992Z,0.61
2018-11-21T09:24:31.169Z,0.55
2018-11-21T09:26:59.326Z,0.79
2018-11-21T09:29:27.523Z,0.86
2018-11-21T09:31:55.656Z,0.91
2018-11-21T09:34:23.773Z,1.00
2018-11-21T09:36:51.914Z,1.06
2018-11-21T09:39:20.022Z,0.97
2018-11-21T09:41:48.968Z,0.90
2018-11-21T09:44:17.111Z,0.94
2018-11-21T09:46:45.240Z,1.01
2018-11-21T09:49:13.425Z,1.01
2018-11-21T09:51:41.520Z,1.06
2018-11-21T09:54:09.632Z,1.08
2018-11-21T09:56:37.745Z,1.15
2018-11-21T09:59:05.851Z,1.22
2018-11-21T10:02:26.750Z,1.24
2018-11-21T10:04:54.886Z,1.26
2018-11-21T10:07:22.995Z,1.21
2018-11-21T10:09:51.746Z,1.22
2018-11-21T10:12:20.141Z,1.09
2018-11-21T10:14:48.278Z,1.23
2018-11-21T10:17:16.399Z,1.23
2018-11-21T10:19:44.527Z,1.25
2018-11-21T10:22:12.635Z,1.30
2018-11-21T10:24:40.739Z,1.28
2018-11-21T10:27:08.866Z,1.37
2018-11-21T10:29:37.047Z,1.34
2018-11-21T10:32:05.244Z,1.33
2018-11-21T10:34:33.399Z,1.45
2018-11-21T10:37:01.520Z,1.46
2018-11-21T10:39:29.630Z,1.50
2018-11-21T10:41:57.783Z,1.49
2018-11-21T10:44:25.872Z,1.43
2018-11-21T10:46:54.012Z,1.44
2018-11-21T10:49:22.111Z,1.57
2018-11-21T10:51:50.216Z,1.66
2018-11-21T10:54:18.313Z,1.75
2018-11-21T10:56:46.771Z,1.76
2018-11-21T10:59:16.777Z,1.79
2018-11-21T11:02:02.678Z,1.77
2018-11-21T11:04:34.861Z,1.73
2018-11-21T11:07:20.907Z,1.61
2018-11-21T11:10:03.186Z,1.62
2018-11-21T11:13:08.947Z,1.79
2018-11-21T11:15:51.582Z,1.89
2018-11-21T11:18:44.675Z,1.76
2018-11-21T11:21:31.933Z,1.79
2018-11-21T11:24:18.330Z,1.90
2018-11-21T11:27:05.176Z,1.92
2018-11-21T11:29:55.463Z,1.92
2018-11-21T11:32:48.462Z,1.97
2018-11-21T11:35:38.358Z,2.07
2018-11-21T11:38:34.340Z,2.03
2018-11-21T11:41:24.154Z,1.84
2018-11-21T11:44:11.487Z,1.95
2018-11-21T11:46:51.031Z,2.21
2018-11-21T11:49:53.199Z,2.17
2018-11-21T11:52:37.686Z,2.05
2018-11-21T11:55:24.893Z,2.11
2018-11-21T11:58:12.137Z,1.95
2018-11-21T12:00:58.451Z,1.90
2018-11-21T12:03:44.572Z,1.92
2018-11-21T12:06:21.877Z,1.88
2018-11-21T12:09:07.732Z,1.84
2018-11-21T12:11:53.709Z,1.88
2018-11-21T12:14:41.935Z,1.94
2018-11-21T12:17:40.822Z,2.02
2018-11-21T12:20:26.780Z,1.92
2018-11-21T12:23:12.680Z,1.92
2018-11-21T12:25:58.963Z,1.98
2018-11-21T12:28:52.315Z,1.98
2018-11-21T12:31:38.417Z,2.09
2018-11-21T12:34:24.210Z,1.96
2018-11-21T12:37:10.241Z,2.03
2018-11-21T12:39:52.891Z,2.05
2018-11-21T12:42:33.562Z,2.06
2018-11-21T12:45:32.642Z,2.07
2018-11-21T12:48:10.386Z,1.99
2018-11-21T12:50:56.147Z,2.05
2018-11-21T12:53:58.567Z,2.09
2018-11-21T12:56:49.766Z,2.09
2018-11-21T12:59:41.035Z,2.04
2018-11-21T13:02:20.985Z,1.99
2018-11-21T13:05:09.365Z,2.06
2018-11-21T13:07:55.402Z,2.17
2018-11-21T13:10:42.641Z,2.08
2018-11-21T13:13:35.708Z,2.17
2018-11-21T13:16:25.900Z,2.14
2018-11-21T13:19:24.597Z,2.07
2018-11-21T13:22:10.160Z,2.08
2018-11-21T13:25:06.291Z,2.04
2018-11-21T13:27:44.224Z,2.13
2018-11-21T13:30:27.069Z,2.07
2018-11-21T13:33:17.367Z,2.06
2018-11-21T13:36:05.933Z,2.10
2018-11-21T13:39:11.363Z,2.09
2018-11-21T13:41:53.436Z,2.12
2018-11-21T13:44:34.494Z,2.13
2018-11-21T13:47:21.734Z,2.16
2018-11-21T13:50:03.333Z,2.04
2018-11-21T13:52:53.117Z,1.98
2018-11-21T13:55:21.221Z,2.02
2018-11-21T13:57:49.308Z,2.10
2018-11-21T14:00:17.408Z,2.06
2018-11-21T14:02:45.557Z,1.98
2018-11-21T14:05:13.652Z,1.95
2018-11-21T14:07:41.779Z,1.95
2018-11-21T14:10:11.250Z,1.97
2018-11-21T14:12:39.543Z,1.94
2018-11-21T14:15:08.768Z,2.02
2018-11-21T14:17:36.904Z,1.98
2018-11-21T14:20:08.497Z,1.93
2018-11-21T14:22:36.811Z,1.93
2018-11-21T14:25:06.310Z,1.90
2018-11-21T14:27:34.458Z,1.87
2018-11-21T14:30:02.569Z,1.84
2018-11-21T14:32:30.703Z,2.03
2018-11-21T14:34:58.806Z,2.10
2018-11-21T14:37:26.935Z,1.97
2018-11-21T14:39:55.062Z,2.05
2018-11-21T14:42:23.180Z,1.97
2018-11-21T14:44:51.270Z,1.93
2018-11-21T14:47:19.430Z,1.82
2018-11-21T14:49:51.872Z,1.98
2018-11-21T14:52:19.992Z,2.04
2018-11-21T14:54:48.185Z,1.98
2018-11-21T14:57:16.325Z,1.97
2018-11-21T14:59:44.438Z,1.97
2018-11-21T15:02:12.575Z,1.83
2018-11-21T15:04:40.680Z,1.85
2018-11-21T15:07:08.815Z,1.87
2018-11-21T15:09:36.931Z,1.77
2018-11-21T15:12:05.456Z,1.91
2018-11-21T15:14:33.575Z,1.86
2018-11-21T15:17:01.760Z,1.98
2018-11-21T15:19:29.896Z,1.72
2018-11-21T15:21:58.001Z,1.77
2018-11-21T15:24:26.144Z,1.76
2018-11-21T15:26:54.244Z,1.86
2018-11-21T15:29:22.362Z,1.71
2018-11-21T15:31:50.461Z,1.74
2018-11-21T15:34:18.583Z,1.79
2018-11-21T15:36:46.708Z,1.77
2018-11-21T15:39:14.839Z,1.93
2018-11-21T15:41:42.963Z,1.79
2018-11-21T15:44:11.076Z,1.82
2018-11-21T15:46:45.430Z,1.67
2018-11-21T15:49:07.323Z,1.62
2018-11-21T15:51:35.449Z,1.64
2018-11-21T15:54:03.879Z,1.67
2018-11-21T15:56:32.408Z,1.61
2018-11-21T15:59:00.504Z,1.66
2018-11-21T16:01:28.607Z,1.71
2018-11-21T16:03:56.762Z,1.71
2018-11-21T16:06:24.889Z,1.59
2018-11-21T16:08:53.008Z,1.59
2018-11-21T16:11:21.124Z,1.58
2018-11-21T16:13:49.230Z,1.52
2018-11-21T16:16:17.330Z,1.56
2018-11-21T16:18:45.477Z,1.53
2018-11-21T16:21:13.588Z,1.53
2018-11-21T16:23:41.710Z,1.53
2018-11-21T16:26:09.824Z,1.56
2018-11-21T16:28:37.968Z,1.59
2018-11-21T16:31:06.430Z,1.63
2018-11-21T16:33:34.553Z,1.70
2018-11-21T16:36:03.563Z,1.57
2018-11-21T16:38:31.703Z,1.55
2018-11-21T16:40:59.809Z,1.53
2018-11-21T16:43:27.935Z,1.54
2018-11-21T16:45:57.312Z,1.52
2018-11-21T16:48:25.446Z,1.50
2018-11-21T16:50:53.602Z,1.47
2018-11-21T16:53:21.762Z,1.44
2018-11-21T16:55:49.910Z,1.49
2018-11-21T16:58:18.069Z,1.54
2018-11-21T17:00:46.202Z,1.50
2018-11-21T17:03:14.310Z,1.48
2018-11-21T17:05:42.444Z,1.52
2018-11-21T17:08:10.599Z,1.52
2018-11-21T17:10:38.721Z,1.52
2018-11-21T17:13:06.854Z,1.52
2018-11-21T17:15:35.469Z,1.56
2018-11-21T17:18:03.572Z,1.51
2018-11-21T17:20:36.344Z,1.44
2018-11-21T17:23:05.420Z,1.49
2018-11-21T17:25:35.367Z,1.42
2018-11-21T17:28:03.494Z,1.44
2018-11-21T17:30:31.616Z,1.42
2018-11-21T17:32:59.726Z,1.41
2018-11-21T17:35:27.826Z,1.41
2018-11-21T17:38:01.948Z,1.41
2018-11-21T17:40:30.436Z,1.44
2018-11-21T17:42:58.911Z,1.41
2018-11-21T17:45:27.037Z,1.42
2018-11-21T17:47:55.182Z,1.44
2018-11-21T17:50:24.216Z,1.41
2018-11-21T17:52:53.710Z,1.40
2018-11-21T17:55:23.553Z,1.43
2018-11-21T17:57:51.666Z,1.46
2018-11-21T18:00:21.154Z,1.56
2018-11-21T18:02:49.290Z,1.57
2018-11-21T18:05:18.942Z,1.48
2018-11-21T18:07:47.106Z,1.43
2018-11-21T18:10:16.641Z,1.44
2018-11-21T18:12:45.262Z,1.41
2018-11-21T18:15:14.051Z,1.48
2018-11-21T18:17:44.311Z,1.41
2018-11-21T18:20:13.384Z,1.41
2018-11-21T18:22:42.195Z,1.39
2018-11-21T18:25:28.082Z,1.39
2018-11-21T18:27:56.486Z,1.39
2018-11-21T18:30:25.171Z,1.39
2018-11-21T18:32:53.287Z,1.35
2018-11-21T18:35:22.477Z,1.39
2018-11-21T18:37:50.618Z,1.40
2018-11-21T18:40:20.478Z,1.41
2018-11-21T18:42:48.767Z,1.36
2018-11-21T18:45:19.516Z,1.37
2018-11-21T18:47:48.029Z,1.38
2018-11-21T18:50:17.260Z,1.37
2018-11-21T18:52:45.732Z,1.38
2018-11-21T18:55:16.153Z,1.37
2018-11-21T18:58:30.538Z,1.40
2018-11-21T19:00:58.666Z,1.40
